Time;durP1;ratioP1;P1;durP2;ratioP2;P2;SDS_P1;SDS_P2;PMS_P1;PMS_P2;Temp;Humidity;BMP_temperature;BMP_pressure;BME280_temperature;BME280_humidity;BME280_pressure;Samples;Min_cycle;Max_cycle;Signal;HPM_P1;HPM_P2
2021/07/05 00:00:11;;;;;;;5.40;3.80;;;;;;;15.67;84.78;96779.47;5055512;28;20029;-64
2021/07/05 00:02:37;;;;;;;5.80;4.10;;;;;;;15.64;84.90;96792.50;5056754;28;20385;-64
2021/07/05 00:05:04;;;;;;;6.43;4.22;;;;;;;15.76;84.58;96793.00;5055468;28;20040;-64
2021/07/05 00:07:30;;;;;;;8.75;4.10;;;;;;;15.59;85.33;96792.16;5055755;28;20037;-64
2021/07/05 00:09:55;;;;;;;6.28;4.10;;;;;;;15.72;85.26;96793.34;5056877;28;20158;-65
2021/07/05 00:12:21;;;;;;;6.15;4.50;;;;;;;15.90;84.26;96785.06;5056534;28;20032;-65
2021/07/05 00:14:47;;;;;;;6.55;4.53;;;;;;;15.84;84.30;96777.59;5056616;28;20031;-65
2021/07/05 00:17:12;;;;;;;6.75;4.60;;;;;;;15.91;84.05;96777.78;5056394;28;20029;-65
2021/07/05 00:19:37;;;;;;;6.95;4.32;;;;;;;15.89;84.31;96788.78;5056622;28;20021;-65
2021/07/05 00:22:03;;;;;;;6.60;4.40;;;;;;;15.96;83.94;96786.25;5056467;28;20040;-65
2021/07/05 00:24:28;;;;;;;7.93;4.57;;;;;;;15.89;84.43;96799.63;5051530;28;20030;-65
2021/07/05 00:26:54;;;;;;;6.63;4.30;;;;;;;16.02;83.56;96791.00;5036714;28;20022;-64
2021/07/05 00:29:19;;;;;;;8.23;4.30;;;;;;;15.89;84.23;96790.66;5036340;28;20029;-64
2021/07/05 00:31:45;;;;;;;5.35;4.00;;;;;;;15.98;83.51;96784.22;5018694;28;20025;-64
2021/07/05 00:34:10;;;;;;;6.72;4.10;;;;;;;15.87;84.35;96782.72;5036502;28;20379;-65
2021/07/05 00:36:35;;;;;;;6.28;3.83;;;;;;;15.77;84.93;96789.25;5036822;28;20040;-65
2021/07/05 00:39:02;;;;;;;6.65;3.80;;;;;;;15.86;84.17;96793.69;5036455;28;20052;-65
2021/07/05 00:41:29;;;;;;;6.15;3.60;;;;;;;15.93;83.92;96791.16;5034883;28;20128;-65
2021/07/05 00:43:56;;;;;;;5.75;3.85;;;;;;;15.79;84.48;96801.63;5042261;28;20711;-65
2021/07/05 00:46:22;;;;;;;6.10;4.22;;;;;;;15.81;83.98;96807.78;5054001;28;20025;-65
2021/07/05 00:48:47;;;;;;;7.32;4.05;;;;;;;15.73;84.38;96802.34;5054337;28;20056;-64
2021/07/05 00:51:13;;;;;;;7.88;3.90;;;;;;;15.61;85.00;96795.56;5056114;28;20108;-65
2021/07/05 00:53:38;;;;;;;6.32;4.20;;;;;;;15.73;84.23;96805.03;5055256;28;20021;-65
2021/07/05 00:56:05;;;;;;;6.53;3.63;;;;;;;15.63;84.72;96807.06;5056079;28;20033;-65
2021/07/05 00:58:31;;;;;;;6.78;3.50;;;;;;;15.51;84.45;96812.81;5055815;28;20021;-64
2021/07/05 01:00:56;;;;;;;4.57;3.15;;;;;;;15.64;83.90;96817.72;5054877;28;20063;-66
2021/07/05 01:03:22;;;;;;;5.75;3.05;;;;;;;15.64;83.63;96823.16;5055890;28;20028;-65
2021/07/05 01:05:47;;;;;;;4.75;3.30;;;;;;;15.54;84.26;96827.91;5055600;28;20488;-64
2021/07/05 01:08:12;;;;;;;3.88;3.28;;;;;;;15.31;85.41;96823.13;5055937;28;20507;-64
2021/07/05 01:10:38;;;;;;;5.75;3.20;;;;;;;15.38;85.13;96824.16;5054547;28;20013;-64
2021/07/05 01:13:03;;;;;;;4.25;2.97;;;;;;;15.43;84.00;96818.22;5055834;28;20036;-64
2021/07/05 01:15:31;;;;;;;4.07;3.15;;;;;;;15.50;83.97;96824.69;5055530;28;20025;-64
2021/07/05 01:18:02;;;;;;;5.35;3.10;;;;;;;15.44;84.43;96828.03;5055447;28;20025;-65
2021/07/05 01:20:29;;;;;;;;;;;;;;;15.48;84.17;96820.44;5055848;28;20477;-64
2021/07/05 01:22:55;;;;;;;4.43;3.00;;;;;;;15.58;83.73;96821.13;5055348;28;19913;-64
2021/07/05 01:25:23;;;;;;;5.53;3.30;;;;;;;15.44;84.52;96825.31;5055335;28;20028;-65
2021/07/05 01:27:49;;;;;;;4.45;2.70;;;;;;;15.35;84.35;96829.03;5055418;28;20025;-65
2021/07/05 01:30:17;;;;;;;4.85;3.10;;;;;;;15.43;83.95;96839.06;5055111;28;20385;-65
2021/07/05 01:32:43;;;;;;;5.15;3.25;;;;;;;15.53;83.53;96834.34;5055310;28;20412;-65
2021/07/05 01:35:10;;;;;;;3.88;2.88;;;;;;;15.62;83.17;96833.34;5053941;28;20485;-65
2021/07/05 01:37:36;;;;;;;3.97;3.10;;;;;;;15.55;83.64;96835.00;5054971;28;20048;-65
2021/07/05 01:40:03;;;;;;;6.30;3.47;;;;;;;15.48;84.47;96833.97;5054925;28;20025;-65
2021/07/05 01:42:29;;;;;;;6.65;3.80;;;;;;;15.52;84.11;96836.19;5055162;28;20037;-64
2021/07/05 01:44:55;;;;;;;4.82;3.45;;;;;;;15.65;83.51;96833.00;5054863;28;20503;-65
2021/07/05 01:47:20;;;;;;;6.30;3.88;;;;;;;15.63;83.57;96829.59;5055085;28;20473;-65
2021/07/05 01:49:46;;;;;;;7.22;3.65;;;;;;;15.66;83.87;96813.00;5054794;28;20043;-65
2021/07/05 01:52:13;;;;;;;6.30;4.03;;;;;;;15.61;84.38;96809.94;5055299;28;20078;-65
2021/07/05 01:54:39;;;;;;;6.47;4.35;;;;;;;15.68;84.37;96816.38;5053672;28;20040;-64
2021/07/05 01:57:05;;;;;;;6.90;4.57;;;;;;;15.69;84.71;96818.09;5054990;28;20100;-64
2021/07/05 01:59:31;;;;;;;9.77;4.43;;;;;;;15.61;84.57;96817.25;5054713;28;20090;-64
2021/07/05 02:01:57;;;;;;;5.20;3.70;;;;;;;15.62;84.19;96805.34;5054505;28;20025;-64
2021/07/05 02:04:25;;;;;;;5.82;3.78;;;;;;;15.54;84.39;96811.66;5052700;28;20105;-64
2021/07/05 02:06:51;;;;;;;6.60;4.07;;;;;;;15.57;84.97;96817.56;5054534;28;20044;-64
2021/07/05 02:09:16;;;;;;;5.20;3.35;;;;;;;15.54;84.00;96806.22;5054923;28;20033;-64
2021/07/05 02:11:42;;;;;;;4.88;3.67;;;;;;;15.48;85.02;96807.72;5053409;28;20431;-65
2021/07/05 02:14:08;;;;;;;4.38;3.45;;;;;;;15.49;84.59;96817.56;5054605;28;20424;-65
2021/07/05 02:16:33;;;;;;;4.05;2.95;;;;;;;15.41;83.71;96833.81;5054596;28;20033;-65
2021/07/05 02:18:59;;;;;;;4.30;3.08;;;;;;;15.60;83.15;96835.34;5054285;28;20389;-65
2021/07/05 02:21:24;;;;;;;5.18;2.97;;;;;;;15.51;83.46;96834.50;5054185;28;20477;-64
2021/07/05 02:23:50;;;;;;;4.75;3.10;;;;;;;15.47;84.14;96835.00;5054040;28;20106;-64
2021/07/05 02:26:15;;;;;;;4.30;3.40;;;;;;;15.45;84.30;96835.16;5054306;28;20025;-65
2021/07/05 02:28:41;;;;;;;5.60;3.28;;;;;;;15.50;84.50;96842.78;5054232;28;20029;-64
2021/07/05 02:31:07;;;;;;;6.03;3.72;;;;;;;15.27;85.67;96840.69;5053930;28;20025;-65
2021/07/05 02:33:34;;;;;;;7.70;4.75;;;;;;;15.16;86.33;96831.03;5053008;28;20017;-65
2021/07/05 02:36:04;;;;;;;6.90;4.85;;;;;;;15.25;85.77;96823.78;5054094;28;20025;-65
2021/07/05 02:38:31;;;;;;;8.60;5.40;;;;;;;15.09;86.37;96816.44;5054040;28;20021;-64
2021/07/05 02:40:57;;;;;;;8.93;5.85;;;;;;;15.13;87.49;96814.28;5053692;28;20021;-65
2021/07/05 02:43:23;;;;;;;9.23;5.10;;;;;;;15.16;86.68;96822.88;5053508;28;20045;-65
2021/07/05 02:45:50;;;;;;;11.35;6.50;;;;;;;15.13;86.98;96841.34;5053930;28;20087;-65
2021/07/05 02:48:19;;;;;;;7.80;5.53;;;;;;;15.17;86.65;96838.13;5053602;28;20028;-63
2021/07/05 02:50:46;;;;;;;8.77;6.18;;;;;;;15.09;87.57;96837.28;5054195;28;20025;-65
2021/07/05 02:53:13;;;;;;;10.23;6.93;;;;;;;15.01;88.08;96832.69;5052620;28;20029;-64
2021/07/05 02:55:38;;;;;;;9.00;6.28;;;;;;;15.26;87.31;96819.19;5053895;28;20025;-65
2021/07/05 02:58:04;;;;;;;9.27;6.50;;;;;;;15.29;86.74;96817.00;5052637;28;20070;-65
2021/07/05 03:00:35;;;;;;;8.95;5.85;;;;;;;15.34;86.17;96813.78;5053475;28;20477;-64
2021/07/05 03:03:01;;;;;;;7.18;5.53;;;;;;;15.35;85.81;96810.94;5052348;28;20415;-64
2021/07/05 03:05:28;;;;;;;6.78;4.18;;;;;;;15.29;85.12;96814.31;5053351;28;20032;-64
2021/07/05 03:07:54;;;;;;;7.32;3.97;;;;;;;15.42;85.00;96810.25;5052000;28;20032;-64
2021/07/05 03:10:22;;;;;;;5.50;4.10;;;;;;;15.49;84.34;96814.84;5052085;28;20096;-65
2021/07/05 03:12:48;;;;;;;7.90;4.90;;;;;;;15.52;85.00;96833.47;5053339;28;20028;-65
2021/07/05 03:15:14;;;;;;;9.10;4.82;;;;;;;15.61;84.47;96838.94;5053543;28;20029;-65
2021/07/05 03:17:41;;;;;;;7.53;4.50;;;;;;;15.71;83.95;96835.03;5052549;28;20097;-65
2021/07/05 03:20:09;;;;;;;5.47;3.90;;;;;;;15.84;82.79;96841.84;5052002;28;20100;-65
2021/07/05 03:22:35;;;;;;;6.88;4.18;;;;;;;15.58;84.23;96840.09;5053246;28;20025;-65
2021/07/05 03:25:01;;;;;;;8.45;4.07;;;;;;;15.37;84.99;96849.53;5053511;28;20097;-64
2021/07/05 03:27:27;;;;;;;6.38;4.18;;;;;;;14.93;87.11;96838.06;5053310;28;20052;-65
2021/07/05 03:29:53;;;;;;;6.18;4.25;;;;;;;15.26;85.84;96849.00;5053135;28;20053;-64
2021/07/05 03:32:19;;;;;;;7.20;4.40;;;;;;;15.51;84.70;96844.47;5053423;28;20021;-65
2021/07/05 03:34:45;;;;;;;6.65;4.40;;;;;;;15.52;84.42;96833.47;5051975;28;20362;-65
2021/07/05 03:37:10;;;;;;;7.50;4.72;;;;;;;15.37;85.13;96851.41;5052078;28;20048;-65
2021/07/05 03:39:36;;;;;;;7.03;4.57;;;;;;;15.31;85.53;96852.06;5048211;28;20025;-65
2021/07/05 03:42:01;;;;;;;6.38;4.50;;;;;;;15.35;85.39;96839.88;5031971;28;20473;-64
2021/07/05 03:44:27;;;;;;;8.48;5.40;;;;;;;15.34;85.58;96843.59;5048162;28;20028;-65
2021/07/05 03:46:52;;;;;;;8.38;5.22;;;;;;;15.45;85.40;96831.63;5053231;28;20071;-65
2021/07/05 03:49:17;;;;;;;7.97;4.90;;;;;;;15.44;85.02;96833.47;5049583;28;20031;-65
2021/07/05 03:51:43;;;;;;;7.53;4.68;;;;;;;15.52;84.74;96833.47;5036409;28;20044;-65
2021/07/05 03:54:08;;;;;;;7.03;4.85;;;;;;;15.53;84.74;96837.88;5044688;28;20053;-64
2021/07/05 03:56:34;;;;;;;7.57;5.00;;;;;;;15.47;84.52;96833.13;5046828;28;20029;-64
2021/07/05 03:58:59;;;;;;;6.90;4.70;;;;;;;15.44;84.70;96829.91;5052636;28;20044;-64
2021/07/05 04:01:25;;;;;;;8.23;4.40;;;;;;;15.34;84.92;96827.34;5052149;28;20047;-64
2021/07/05 04:03:50;;;;;;;8.82;4.30;;;;;;;15.38;84.99;96834.16;5052674;28;20025;-64
2021/07/05 04:06:15;;;;;;;6.78;4.00;;;;;;;15.40;84.45;96829.38;5051756;28;20060;-64
2021/07/05 04:08:41;;;;;;;5.30;3.72;;;;;;;15.19;84.29;96828.00;5052299;28;20115;-64
2021/07/05 04:11:07;;;;;;;4.45;3.38;;;;;;;15.28;84.69;96826.16;5051442;28;20047;-65
2021/07/05 04:13:33;;;;;;;4.78;3.10;;;;;;;15.00;84.58;96833.69;5052748;28;20021;-65
2021/07/05 04:15:58;;;;;;;4.32;2.70;;;;;;;15.34;81.68;96821.91;5052854;28;20029;-64
2021/07/05 04:18:24;;;;;;;4.25;2.85;;;;;;;15.41;83.13;96825.69;5052832;28;20036;-64
2021/07/05 04:20:50;;;;;;;3.70;2.53;;;;;;;15.46;80.88;96828.72;5052565;28;20469;-65
2021/07/05 04:23:15;;;;;;;5.90;3.13;;;;;;;15.46;82.83;96831.44;5051532;28;20056;-65
2021/07/05 04:25:41;;;;;;;4.53;2.83;;;;;;;15.38;83.16;96832.28;5050966;28;20415;-65
2021/07/05 04:28:07;;;;;;;5.38;2.60;;;;;;;15.38;82.48;96834.16;5053287;28;20039;-63
2021/07/05 04:30:33;;;;;;;3.92;2.30;;;;;;;15.53;81.43;96837.88;5055611;28;20103;-65
2021/07/05 04:32:59;;;;;;;3.03;2.33;;;;;;;15.60;81.36;96839.94;5056211;28;20074;-65
2021/07/05 04:35:26;;;;;;;3.38;2.20;;;;;;;15.61;79.41;96836.22;5043900;28;20029;-65
2021/07/05 04:37:52;;;;;;;2.88;2.20;;;;;;;15.87;77.09;96838.78;5040654;28;20025;-65
2021/07/05 04:40:21;;;;;;;3.05;1.92;;;;;;;15.78;78.24;96832.50;5041285;28;20031;-66
2021/07/05 04:42:47;;;;;;;2.05;1.90;;;;;;;15.60;79.31;96832.63;5050188;28;20033;-65
2021/07/05 04:45:15;;;;;;;3.92;2.20;;;;;;;15.70;77.97;96833.34;5054793;28;20017;-65
2021/07/05 04:47:42;;;;;;;1.98;1.80;;;;;;;15.89;75.66;96832.19;5045885;28;20072;-65
2021/07/05 04:50:09;;;;;;;6.43;2.63;;;;;;;15.72;80.58;96838.59;5048314;28;20469;-65
2021/07/05 04:52:35;;;;;;;2.08;1.90;;;;;;;16.07;73.85;96833.88;5084774;28;20052;-64
2021/07/05 04:55:01;;;;;;;2.80;1.95;;;;;;;16.23;73.54;96833.00;5042709;28;20496;-65
2021/07/05 04:57:27;;;;;;;5.30;2.20;;;;;;;16.12;77.48;96836.09;5040340;28;20026;-65
2021/07/05 04:59:52;;;;;;;3.50;1.85;;;;;;;15.97;76.39;96833.22;5039125;28;20479;-64
2021/07/05 05:02:21;;;;;;;3.38;1.90;;;;;;;16.20;73.58;96836.06;5042138;28;20529;-64
2021/07/05 05:04:46;;;;;;;3.25;1.90;;;;;;;16.23;73.99;96839.31;5034860;28;20036;-64
2021/07/05 05:07:12;;;;;;;2.03;1.70;;;;;;;15.98;76.89;96833.03;5038988;28;20029;-64
2021/07/05 05:09:37;;;;;;;2.67;1.95;;;;;;;16.06;74.92;96824.03;5038070;28;20457;-64
2021/07/05 05:12:03;;;;;;;4.00;2.10;;;;;;;16.04;78.93;96828.78;5055223;28;20025;-65
2021/07/05 05:14:28;;;;;;;4.07;1.90;;;;;;;16.10;77.67;96824.53;5054060;28;20036;-65
2021/07/05 05:16:54;;;;;;;4.40;2.10;;;;;;;15.86;80.30;96829.81;5050122;28;20087;-65
2021/07/05 05:19:19;;;;;;;3.35;1.90;;;;;;;16.00;79.50;96836.41;5039195;28;20511;-65
2021/07/05 05:21:45;;;;;;;2.67;1.83;;;;;;;16.13;78.84;96825.06;5035173;28;20053;-65
2021/07/05 05:24:10;;;;;;;2.05;1.73;;;;;;;16.34;78.84;96834.50;5035230;28;20029;-66
2021/07/05 05:26:36;;;;;;;3.00;2.10;;;;;;;16.46;79.23;96838.59;5035354;28;20041;-66
2021/07/05 05:29:01;;;;;;;2.80;2.10;;;;;;;16.46;79.29;96837.72;5034015;28;20049;-64
2021/07/05 05:31:26;;;;;;;3.72;2.17;;;;;;;16.59;77.44;96837.19;5033914;28;20021;-64
2021/07/05 05:33:53;;;;;;;5.43;2.53;;;;;;;16.69;78.65;96837.84;5034838;28;20029;-64
2021/07/05 05:36:18;;;;;;;3.60;2.40;;;;;;;16.62;78.59;96829.56;5054637;28;20025;-63
2021/07/05 05:38:48;;;;;;;6.35;2.38;;;;;;;16.77;79.96;96826.97;5054406;28;20040;-64
2021/07/05 05:41:14;;;;;;;3.70;1.90;;;;;;;17.02;76.34;96837.75;5054685;28;20032;-64
2021/07/05 05:43:40;;;;;;;3.60;2.15;;;;;;;17.12;77.90;96846.53;5054671;28;20052;-64
2021/07/05 05:46:05;;;;;;;5.70;2.38;;;;;;;17.18;78.56;96845.84;5054784;28;20029;-64
2021/07/05 05:48:31;;;;;;;4.68;2.35;;;;;;;17.21;78.17;96856.34;5053320;28;20397;-63
2021/07/05 05:50:57;;;;;;;5.35;2.45;;;;;;;17.39;78.92;96855.22;5054622;28;20131;-64
2021/07/05 05:53:23;;;;;;;3.42;2.38;;;;;;;17.42;78.18;96856.75;5053475;28;20503;-64
2021/07/05 05:55:49;;;;;;;3.67;2.38;;;;;;;17.65;78.06;96859.47;5054473;28;20100;-64
2021/07/05 05:58:15;;;;;;;4.15;2.65;;;;;;;17.66;78.83;96850.31;5044577;28;20033;-64
2021/07/05 06:00:41;;;;;;;6.40;2.38;;;;;;;17.73;79.01;96854.84;5046695;28;20037;-64
2021/07/05 06:03:06;;;;;;;5.70;2.33;;;;;;;17.76;79.63;96861.81;5054402;28;20028;-64
2021/07/05 06:05:32;;;;;;;4.13;2.55;;;;;;;17.78;80.20;96864.34;5054063;28;20075;-64
2021/07/05 06:07:57;;;;;;;5.57;2.60;;;;;;;17.89;79.99;96878.38;5038217;28;20072;-64
2021/07/05 06:10:24;;;;;;;4.43;2.75;;;;;;;17.92;80.24;96877.19;5036091;28;20119;-63
2021/07/05 06:12:51;;;;;;;7.85;2.85;;;;;;;17.95;80.71;96881.44;5051618;28;20116;-63
2021/07/05 06:15:18;;;;;;;4.97;3.00;;;;;;;18.02;80.36;96885.94;5051254;28;20036;-64
2021/07/05 06:17:44;;;;;;;7.63;3.05;;;;;;;18.12;79.70;96882.13;5052960;28;20732;-64
2021/07/05 06:20:10;;;;;;;4.15;3.00;;;;;;;18.13;79.11;96886.56;5050621;28;20053;-64
2021/07/05 06:22:50;;;;;;;4.32;3.00;;;;;;;18.22;78.39;96893.63;5050341;28;20380;-64
2021/07/05 06:25:16;;;;;;;9.43;3.30;;;;;;;18.30;79.62;96899.00;5049232;28;20025;-64
2021/07/05 06:27:42;;;;;;;9.43;3.30;;;;;;;18.32;78.92;96899.66;5049833;28;20026;-64
2021/07/05 06:30:08;;;;;;;3.72;2.65;;;;;;;18.34;77.20;96907.66;5048640;28;20017;-64
2021/07/05 06:32:34;;;;;;;3.35;2.60;;;;;;;18.47;75.01;96915.22;5049863;28;20017;-64
2021/07/05 06:34:59;;;;;;;5.53;2.55;;;;;;;18.56;73.99;96922.28;5051856;28;20028;-64
2021/07/05 06:37:24;;;;;;;7.55;2.63;;;;;;;18.52;74.21;96929.09;5052088;28;20511;-64
2021/07/05 06:39:50;;;;;;;5.18;2.90;;;;;;;18.66;73.16;96932.91;5052599;28;20028;-63
2021/07/05 06:42:15;;;;;;;4.03;2.42;;;;;;;18.60;73.87;96933.63;5053924;28;20048;-63
2021/07/05 06:44:41;;;;;;;3.25;2.30;;;;;;;18.46;72.38;96932.56;5054046;28;20103;-63
2021/07/05 06:47:06;;;;;;;3.53;2.70;;;;;;;18.63;71.96;96928.66;5052016;28;20052;-63
2021/07/05 06:49:32;;;;;;;3.53;2.60;;;;;;;18.59;73.32;96932.78;5053381;28;20366;-63
2021/07/05 06:51:57;;;;;;;4.25;2.60;;;;;;;18.61;72.78;96929.88;5053297;28;20090;-63
2021/07/05 06:54:23;;;;;;;3.58;2.45;;;;;;;18.45;73.49;96939.88;5053721;28;20039;-63
2021/07/05 06:56:48;;;;;;;3.20;2.40;;;;;;;18.48;73.33;96930.50;5053488;28;20036;-63
2021/07/05 06:59:14;;;;;;;3.83;2.70;;;;;;;18.41;75.25;96930.38;5053391;28;20039;-63
2021/07/05 07:01:40;;;;;;;5.07;2.58;;;;;;;18.39;76.41;96924.28;5053313;28;20120;-63
2021/07/05 07:04:06;;;;;;;3.85;2.60;;;;;;;18.31;76.33;96927.09;5052225;28;20049;-63
2021/07/05 07:06:31;;;;;;;5.55;2.80;;;;;;;18.17;76.00;96931.41;5053460;28;20033;-63
2021/07/05 07:08:57;;;;;;;4.60;2.80;;;;;;;18.21;75.00;96927.31;5053443;28;20075;-63
2021/07/05 07:11:22;;;;;;;5.30;3.10;;;;;;;18.23;75.15;96926.09;5053277;28;20033;-64
2021/07/05 07:13:48;;;;;;;6.55;3.15;;;;;;;18.23;75.33;96931.53;5053402;28;20056;-63
2021/07/05 07:16:19;;;;;;;9.10;3.28;;;;;;;18.22;75.18;96939.91;5053580;28;20082;-63
2021/07/05 07:21:28;;;;;;;6.55;3.85;;;;;;;18.34;77.48;96919.38;5053463;28;20040;-63
2021/07/05 07:23:54;;;;;;;6.43;3.80;;;;;;;18.50;76.88;96917.56;5053401;28;20029;-63
2021/07/05 07:26:20;;;;;;;10.57;4.28;;;;;;;18.54;75.43;96927.88;5053309;28;20171;-63
2021/07/05 07:28:52;;;;;;;9.95;4.05;;;;;;;18.60;76.14;96928.19;5053132;28;20029;-63
2021/07/05 07:31:18;;;;;;;7.75;4.10;;;;;;;18.43;75.99;96927.50;5053433;28;20032;-63
2021/07/05 07:33:44;;;;;;;10.10;4.55;;;;;;;18.62;76.03;96934.28;5053585;28;20103;-63
2021/07/05 07:36:10;;;;;;;9.15;4.50;;;;;;;18.99;74.65;96930.72;5053268;28;20065;-63
2021/07/05 07:38:38;;;;;;;8.43;4.65;;;;;;;19.13;73.93;96936.38;5053228;28;20025;-63
2021/07/05 07:41:03;;;;;;;7.35;4.45;;;;;;;18.90;72.59;96949.03;5051754;28;20029;-64
2021/07/05 07:43:29;;;;;;;9.15;5.10;;;;;;;18.92;72.05;96954.31;5052894;28;20481;-63
2021/07/05 07:45:54;;;;;;;10.10;5.43;;;;;;;18.89;72.54;96954.66;5053179;28;20033;-64
2021/07/05 07:48:20;;;;;;;10.30;5.57;;;;;;;18.84;73.01;96954.34;5052916;28;20056;-63
2021/07/05 07:50:45;;;;;;;10.60;5.40;;;;;;;19.00;73.32;96956.94;5053237;28;20075;-63
2021/07/05 07:53:10;;;;;;;9.77;5.63;;;;;;;19.00;72.19;96958.81;5052767;28;20032;-63
2021/07/05 07:55:36;;;;;;;16.33;5.72;;;;;;;19.00;72.80;96961.53;5052891;28;20060;-63
2021/07/05 07:58:01;;;;;;;10.98;5.55;;;;;;;19.17;73.13;96952.13;5051655;28;20043;-63
2021/07/05 08:00:30;;;;;;;9.75;5.28;;;;;;;19.54;72.02;96946.78;5053110;28;20052;-63
2021/07/05 08:02:55;;;;;;;9.25;5.80;;;;;;;19.44;72.99;96951.69;5053920;28;20105;-64
2021/07/05 08:05:20;;;;;;;8.43;5.32;;;;;;;19.49;71.76;96952.78;5056968;28;20065;-63
2021/07/05 08:07:46;;;;;;;8.32;4.65;;;;;;;19.47;71.92;96957.59;5056496;28;20432;-62
2021/07/05 08:10:14;;;;;;;8.05;5.28;;;;;;;19.34;71.74;96952.81;5056821;28;20538;-64
2021/07/05 08:12:41;;;;;;;7.32;4.03;;;;;;;19.57;70.91;96960.03;5055701;28;20074;-64
2021/07/05 08:15:07;;;;;;;6.97;4.07;;;;;;;19.58;71.16;96962.56;5056425;28;20384;-63
2021/07/05 08:17:32;;;;;;;5.03;3.30;;;;;;;19.57;67.67;96955.44;5056889;28;20119;-64
2021/07/05 08:19:57;;;;;;;5.28;2.83;;;;;;;19.56;66.95;96959.19;5055088;28;20489;-64
2021/07/05 08:22:23;;;;;;;4.07;2.30;;;;;;;19.52;64.00;96946.13;5056678;28;20056;-63
2021/07/05 08:24:50;;;;;;;5.95;2.80;;;;;;;19.84;66.33;96946.75;5056437;28;20033;-63
2021/07/05 08:27:16;;;;;;;4.10;2.70;;;;;;;19.96;64.36;96942.47;5056479;28;20510;-64
2021/07/05 08:29:41;;;;;;;5.40;2.92;;;;;;;20.05;66.82;96949.50;5055025;28;20052;-64
2021/07/05 08:32:07;;;;;;;4.70;3.10;;;;;;;20.13;65.56;96943.09;5056377;28;20472;-64
2021/07/05 08:34:32;;;;;;;6.07;2.80;;;;;;;20.25;65.09;96948.88;5056684;28;20111;-64
2021/07/05 08:36:58;;;;;;;6.45;2.90;;;;;;;20.28;64.84;96953.94;5056302;28;20512;-63
2021/07/05 08:39:23;;;;;;;6.20;2.80;;;;;;;20.27;65.55;96951.41;5056042;28;20025;-63
2021/07/05 08:41:49;;;;;;;4.68;2.63;;;;;;;20.18;64.20;96951.53;5056274;28;20029;-64
2021/07/05 08:44:15;;;;;;;5.38;2.72;;;;;;;20.16;65.01;96956.38;5055786;28;20041;-63
2021/07/05 08:46:41;;;;;;;5.63;3.38;;;;;;;20.19;65.07;96958.72;5055938;28;20396;-64
2021/07/05 08:49:07;;;;;;;5.50;3.13;;;;;;;20.21;63.44;96959.34;5055929;28;20112;-63
2021/07/05 08:51:32;;;;;;;4.93;2.95;;;;;;;20.23;65.32;96961.91;5056218;28;20064;-63
2021/07/05 08:53:58;;;;;;;4.47;2.92;;;;;;;20.45;65.47;96956.44;5056023;28;20029;-64
2021/07/05 08:56:24;;;;;;;6.97;3.25;;;;;;;20.55;66.23;96966.00;5055591;28;20067;-63
2021/07/05 08:58:52;;;;;;;6.32;3.47;;;;;;;20.39;66.77;96967.09;5055769;28;20056;-63
2021/07/05 09:01:17;;;;;;;8.15;3.67;;;;;;;20.45;67.56;96970.94;5055725;28;20032;-64
2021/07/05 09:03:42;;;;;;;5.45;3.42;;;;;;;20.49;66.46;96974.13;5054476;28;20025;-64
2021/07/05 09:06:22;;;;;;;12.38;4.00;;;;;;;20.45;66.80;96979.13;5055867;28;20074;-64
2021/07/05 09:08:57;;;;;;;6.50;3.87;;;;;;;20.46;67.52;96974.53;5055860;28;20112;-63
2021/07/05 09:11:36;;;;;;;5.57;3.47;;;;;;;20.36;67.38;96977.56;5055949;28;20032;-64
2021/07/05 09:14:01;;;;;;;7.40;3.38;;;;;;;20.38;68.38;96975.50;5055698;28;20033;-64
2021/07/05 09:16:32;;;;;;;5.60;3.30;;;;;;;20.35;66.46;96974.00;5054453;28;20036;-64
2021/07/05 09:18:58;;;;;;;7.88;2.90;;;;;;;20.22;62.33;96962.94;5055315;28;20028;-64
2021/07/05 09:21:26;;;;;;;3.67;2.80;;;;;;;20.80;61.69;96962.84;5055542;28;20025;-64
2021/07/05 09:24:03;;;;;;;3.55;2.50;;;;;;;20.77;58.88;96960.53;5054306;28;20025;-64
2021/07/05 09:26:47;;;;;;;4.88;2.53;;;;;;;20.95;59.76;96968.25;5055445;28;20063;-64
2021/07/05 09:29:18;;;;;;;5.20;2.80;;;;;;;21.17;58.86;96968.19;5055265;28;20037;-63
2021/07/05 09:31:47;;;;;;;6.80;2.70;;;;;;;21.06;58.69;96977.81;5055392;28;20025;-63
2021/07/05 09:34:17;;;;;;;3.90;2.40;;;;;;;21.17;58.85;96973.66;5038135;28;20059;-63
2021/07/05 09:36:42;;;;;;;6.05;2.72;;;;;;;21.23;59.68;96981.91;5055020;28;20496;-63
2021/07/05 09:39:14;;;;;;;5.90;2.53;;;;;;;21.28;58.79;96983.19;5055030;28;20052;-63
2021/07/05 09:41:40;;;;;;;4.53;2.63;;;;;;;21.28;59.14;96975.00;5055010;28;20025;-64
2021/07/05 09:44:11;;;;;;;4.80;2.70;;;;;;;21.46;58.63;96969.00;5054839;28;20070;-63
2021/07/05 09:46:38;;;;;;;3.88;2.75;;;;;;;21.79;57.60;96966.44;5054372;28;20037;-63
2021/07/05 09:49:17;;;;;;;5.25;2.90;;;;;;;21.69;57.16;96966.00;5054600;28;20065;-63
2021/07/05 09:52:04;;;;;;;5.45;2.90;;;;;;;21.73;56.70;96956.34;5054205;28;20021;-64
2021/07/05 09:54:29;;;;;;;5.13;3.17;;;;;;;21.71;57.69;96953.81;5054585;28;20048;-64
2021/07/05 09:56:55;;;;;;;4.97;2.95;;;;;;;21.80;58.62;96959.94;5054700;28;20037;-64
2021/07/05 09:59:23;;;;;;;6.15;3.15;;;;;;;21.85;59.67;96973.03;5054575;28;20029;-63
2021/07/05 10:01:53;;;;;;;7.47;3.20;;;;;;;21.92;60.73;96973.06;5053586;28;20029;-64
2021/07/05 10:04:27;;;;;;;6.03;3.25;;;;;;;22.00;60.68;96978.34;5054723;28;20098;-63
2021/07/05 10:06:55;;;;;;;6.30;3.00;;;;;;;22.11;55.97;96963.22;5054283;28;20029;-64
2021/07/05 10:09:35;;;;;;;5.95;2.70;;;;;;;22.23;55.59;96965.16;5054573;28;20104;-63
2021/07/05 10:12:13;;;;;;;8.05;3.80;;;;;;;22.25;59.22;96975.91;5054664;28;20031;-64
2021/07/05 10:14:39;;;;;;;5.15;3.20;;;;;;;22.32;58.48;96974.00;5054644;28;20033;-64
2021/07/05 10:17:13;;;;;;;10.75;4.05;;;;;;;22.32;59.15;96976.75;5054192;28;20029;-63
2021/07/05 10:19:39;;;;;;;10.40;4.25;;;;;;;22.26;61.13;96965.78;5054222;28;20384;-64
2021/07/05 10:22:04;;;;;;;6.68;4.30;;;;;;;22.53;61.95;96967.53;5054416;28;20029;-63
2021/07/05 10:24:30;;;;;;;6.90;3.80;;;;;;;22.69;58.61;96965.47;5054479;28;20511;-64
2021/07/05 10:26:56;;;;;;;5.13;2.90;;;;;;;22.76;55.57;96970.94;5052437;28;20033;-64
2021/07/05 10:29:23;;;;;;;4.75;2.75;;;;;;;22.35;52.66;96968.13;5054124;28;20036;-63
2021/07/05 10:31:49;;;;;;;3.55;2.40;;;;;;;22.27;53.64;96967.47;5054005;28;20112;-63
2021/07/05 10:34:15;;;;;;;5.97;3.00;;;;;;;22.34;57.02;96971.91;5052977;28;20110;-63
2021/07/05 10:36:41;;;;;;;6.40;3.38;;;;;;;22.40;57.53;96979.31;5052997;28;20032;-63
2021/07/05 10:39:09;;;;;;;5.88;3.22;;;;;;;22.47;56.49;96984.81;5052556;28;20032;-63
2021/07/05 10:41:40;;;;;;;6.85;2.80;;;;;;;22.48;56.47;96980.19;5052642;28;20473;-63
2021/07/05 10:44:09;;;;;;;6.18;2.90;;;;;;;22.49;59.53;96984.59;5053591;28;20443;-63
2021/07/05 10:46:44;;;;;;;5.25;2.60;;;;;;;22.77;54.56;96976.22;5052711;28;20059;-63
2021/07/05 10:49:27;;;;;;;8.00;2.40;;;;;;;22.88;56.32;96986.53;5053787;28;20013;-63
2021/07/05 10:51:53;;;;;;;4.35;2.40;;;;;;;22.94;51.93;96994.97;5053863;28;20028;-63
2021/07/05 10:54:41;;;;;;;7.93;2.90;;;;;;;23.11;53.08;96996.25;5053580;28;20021;-64
2021/07/05 10:57:06;;;;;;;4.97;2.30;;;;;;;23.18;51.63;97002.63;5053743;28;20028;-63
2021/07/05 10:59:34;;;;;;;5.50;2.10;;;;;;;23.28;52.27;96991.19;5053276;28;20029;-63
2021/07/05 11:01:59;;;;;;;2.58;1.92;;;;;;;23.37;49.07;96992.66;5053345;28;20056;-63
2021/07/05 11:04:30;;;;;;;5.22;2.05;;;;;;;23.44;49.92;96989.91;5053278;28;20056;-64
2021/07/05 11:06:58;;;;;;;1.98;1.75;;;;;;;23.51;47.81;96992.66;5053235;28;20450;-64
2021/07/05 11:09:25;;;;;;;3.70;2.00;;;;;;;23.60;49.16;96991.34;5052404;28;20048;-64
2021/07/05 11:12:01;;;;;;;3.38;1.80;;;;;;;23.53;48.39;96990.50;5053628;28;20032;-63
2021/07/05 11:14:38;;;;;;;2.90;2.00;;;;;;;23.69;49.37;96995.56;5053127;28;20060;-63
2021/07/05 11:17:17;;;;;;;2.88;1.80;;;;;;;23.62;45.50;96991.13;5053505;28;20025;-64
2021/07/05 11:19:55;;;;;;;3.15;2.00;;;;;;;23.86;48.25;96998.66;5053052;28;20025;-64
2021/07/05 11:22:31;;;;;;;6.88;2.40;;;;;;;24.03;47.78;96993.56;5053712;28;20091;-63
2021/07/05 11:25:14;;;;;;;6.28;2.10;;;;;;;24.18;46.77;96997.94;5053080;28;20032;-63
2021/07/05 11:27:45;;;;;;;6.38;1.77;;;;;;;24.16;45.14;96991.78;5053505;28;20091;-63
2021/07/05 11:30:11;;;;;;;2.35;1.88;;;;;;;24.09;45.58;96991.81;5053596;28;20033;-64
2021/07/05 11:32:51;;;;;;;2.80;1.67;;;;;;;23.93;44.29;96984.09;5053341;28;20033;-63
2021/07/05 11:35:34;;;;;;;1.88;1.60;;;;;;;24.01;45.43;96981.09;5053126;28;20358;-63